Time;durP1;ratioP1;P1;durP2;ratioP2;P2;SDS_P1;SDS_P2;PMS_P1;PMS_P2;Temp;Humidity;BMP_temperature;BMP_pressure;BME280_temperature;BME280_humidity;BME280_pressure;Samples;Min_cycle;Max_cycle;Signal;HPM_P1;HPM_P2
2023/07/25 00:01:46;;;;;;;10.93;4.80;;;15.20;99.90;;;;;;5074301;28;20247;-74
2023/07/25 00:04:13;;;;;;;7.82;4.10;;;15.30;99.90;;;;;;5069080;28;20310;-73
2023/07/25 00:06:40;;;;;;;9.52;5.60;;;15.30;99.90;;;;;;5075082;28;20253;-75
2023/07/25 00:09:09;;;;;;;11.38;5.32;;;15.30;99.90;;;;;;5067734;28;20680;-76
2023/07/25 00:11:37;;;;;;;12.23;5.25;;;15.30;99.90;;;;;;5070202;28;20326;-75
2023/07/25 00:14:04;;;;;;;5.75;4.35;;;15.20;99.90;;;;;;5064059;28;20265;-74
2023/07/25 00:16:31;;;;;;;8.13;5.00;;;15.20;99.90;;;;;;5066642;28;20207;-75
2023/07/25 00:19:01;;;;;;;9.75;5.53;;;15.10;99.90;;;;;;5071457;28;20563;-76
2023/07/25 00:21:28;;;;;;;10.57;4.85;;;15.10;99.90;;;;;;5065488;28;20201;-74
2023/07/25 00:23:54;;;;;;;7.22;5.03;;;15.10;99.90;;;;;;5065239;28;20701;-73
2023/07/25 00:26:22;;;;;;;7.80;5.10;;;15.10;99.90;;;;;;5065908;28;20289;-74
2023/07/25 00:28:51;;;;;;;15.40;5.80;;;15.00;99.90;;;;;;5074851;28;20211;-76
2023/07/25 00:31:19;;;;;;;7.47;5.07;;;15.00;99.90;;;;;;5059915;28;20199;-75
2023/07/25 00:33:45;;;;;;;11.00;5.95;;;15.00;99.90;;;;;;5062638;28;20319;-76
2023/07/25 00:36:12;;;;;;;7.63;5.75;;;15.00;99.90;;;;;;5069905;28;20756;-75
2023/07/25 00:38:39;;;;;;;10.30;6.22;;;14.90;99.90;;;;;;5066685;28;20631;-74
2023/07/25 00:41:06;;;;;;;7.07;5.65;;;14.90;99.90;;;;;;5066838;28;20206;-76
2023/07/25 00:43:33;;;;;;;11.60;7.38;;;14.90;99.90;;;;;;5064644;28;20266;-75
2023/07/25 00:46:01;;;;;;;9.23;8.00;;;14.80;99.90;;;;;;5065608;28;20727;-76
2023/07/25 00:48:30;;;;;;;7.95;5.53;;;14.80;99.90;;;;;;5066861;28;20289;-76
2023/07/25 00:50:56;;;;;;;7.55;5.85;;;14.70;99.90;;;;;;5057881;28;20207;-76
2023/07/25 00:53:24;;;;;;;11.68;5.80;;;14.70;99.90;;;;;;5072419;28;20576;-76
2023/07/25 00:55:51;;;;;;;18.70;7.10;;;14.60;99.90;;;;;;5076068;28;20275;-74
2023/07/25 00:58:19;;;;;;;8.82;6.15;;;14.60;99.90;;;;;;5063647;28;20575;-75
2023/07/25 01:00:46;;;;;;;17.98;7.30;;;14.60;99.90;;;;;;5070825;28;20210;-77
2023/07/25 01:03:15;;;;;;;8.13;6.22;;;14.60;99.90;;;;;;5072142;28;20222;-75
2023/07/25 01:05:45;;;;;;;9.55;6.68;;;14.50;99.90;;;;;;5074219;28;20218;-76
2023/07/25 01:08:12;;;;;;;11.88;7.15;;;14.50;99.90;;;;;;5069221;28;20204;-78
2023/07/25 01:10:39;;;;;;;6.95;6.05;;;14.50;99.90;;;;;;5066958;28;20242;-77
2023/07/25 01:13:07;;;;;;;12.52;7.78;;;14.50;99.90;;;;;;5070566;28;20238;-75
2023/07/25 01:15:35;;;;;;;12.77;6.38;;;14.50;99.90;;;;;;5065899;28;20201;-75
2023/07/25 01:18:03;;;;;;;11.02;5.80;;;14.50;99.90;;;;;;5060692;28;20261;-75
2023/07/25 01:20:32;;;;;;;9.05;8.07;;;14.50;99.90;;;;;;5061980;28;20206;-75
2023/07/25 01:23:01;;;;;;;8.65;6.80;;;14.50;99.90;;;;;;5070753;28;20694;-75
2023/07/25 01:25:29;;;;;;;8.80;6.15;;;14.40;99.90;;;;;;5076195;28;20199;-75
2023/07/25 01:27:56;;;;;;;9.65;7.00;;;14.40;99.90;;;;;;5077524;28;20658;-75
2023/07/25 01:30:23;;;;;;;19.35;8.32;;;14.40;99.90;;;;;;5066030;28;20192;-75
2023/07/25 01:32:52;;;;;;;10.10;6.82;;;14.40;99.90;;;;;;5077259;28;20254;-76
2023/07/25 01:35:19;;;;;;;10.13;7.00;;;14.40;99.90;;;;;;5073975;28;20286;-77
2023/07/25 01:37:47;;;;;;;11.05;6.88;;;14.30;99.90;;;;;;5069814;28;20231;-77
2023/07/25 01:40:14;;;;;;;9.63;6.35;;;14.30;99.90;;;;;;5072984;28;20199;-75
2023/07/25 01:42:43;;;;;;;16.40;9.20;;;14.30;99.90;;;;;;5074134;28;20277;-75
2023/07/25 01:45:11;;;;;;;14.48;8.90;;;14.20;99.90;;;;;;5066278;28;20202;-76
2023/07/25 01:47:39;;;;;;;17.13;8.07;;;14.20;99.90;;;;;;5073177;28;20207;-75
2023/07/25 01:50:06;;;;;;;9.15;8.20;;;14.20;99.90;;;;;;5072640;28;20206;-76
2023/07/25 01:52:33;;;;;;;17.42;8.27;;;14.10;99.90;;;;;;5073265;28;20226;-76
2023/07/25 01:55:00;;;;;;;23.25;9.15;;;14.10;99.90;;;;;;5072304;28;20268;-76
2023/07/25 01:57:27;;;;;;;15.13;8.82;;;14.10;99.90;;;;;;5072710;28;20205;-76
2023/07/25 01:59:57;;;;;;;21.98;10.13;;;14.20;99.90;;;;;;5066504;28;20274;-75
2023/07/25 02:02:24;;;;;;;10.40;8.85;;;14.20;99.90;;;;;;5066141;28;20650;-74
2023/07/25 02:04:51;;;;;;;20.52;9.40;;;14.20;99.90;;;;;;5068105;28;20381;-74
2023/07/25 02:07:18;;;;;;;10.63;8.60;;;14.20;99.90;;;;;;5065090;28;20199;-75
2023/07/25 02:09:45;;;;;;;8.85;8.02;;;14.30;99.90;;;;;;5072617;28;20649;-76
2023/07/25 02:12:12;;;;;;;10.15;8.00;;;14.30;99.90;;;;;;5068430;28;20752;-73
2023/07/25 02:14:40;;;;;;;18.05;9.50;;;14.30;99.90;;;;;;5073419;28;20205;-74
2023/07/25 02:17:09;;;;;;;12.55;7.47;;;14.30;99.90;;;;;;5070205;28;20207;-75
2023/07/25 02:19:35;;;;;;;9.13;7.35;;;14.30;99.90;;;;;;5071490;28;20289;-73
2023/07/25 02:22:02;;;;;;;10.95;7.20;;;14.30;99.90;;;;;;5070604;28;20211;-75
2023/07/25 02:24:29;;;;;;;15.43;7.80;;;14.40;99.90;;;;;;5071922;28;20229;-77
2023/07/25 02:26:56;;;;;;;18.92;8.65;;;14.30;99.90;;;;;;5072827;28;20688;-76
2023/07/25 02:29:23;;;;;;;14.27;8.20;;;14.30;99.90;;;;;;5071827;28;20208;-76
2023/07/25 02:31:50;;;;;;;17.05;7.80;;;14.30;99.90;;;;;;5072630;28;20290;-75
2023/07/25 02:34:18;;;;;;;12.27;8.20;;;14.30;99.90;;;;;;5061562;28;20306;-77
2023/07/25 02:36:45;;;;;;;23.83;8.88;;;14.30;99.90;;;;;;5071790;28;20209;-75
2023/07/25 02:39:12;;;;;;;10.38;7.13;;;14.30;99.90;;;;;;5062193;28;20203;-74
2023/07/25 02:41:39;;;;;;;18.15;9.02;;;14.30;99.90;;;;;;5061407;28;20230;-74
2023/07/25 02:44:06;;;;;;;13.80;7.75;;;14.20;99.90;;;;;;5062499;28;20297;-74
2023/07/25 02:46:33;;;;;;;15.38;7.68;;;14.20;99.90;;;;;;5058823;28;20604;-75
2023/07/25 02:49:00;;;;;;;13.27;8.55;;;14.30;99.90;;;;;;5071326;28;20310;-74
2023/07/25 02:51:28;;;;;;;19.48;7.40;;;14.30;99.90;;;;;;5066884;28;20286;-75
2023/07/25 02:53:55;;;;;;;13.35;8.15;;;14.30;99.90;;;;;;5060383;28;20232;-73
2023/07/25 02:56:22;;;;;;;14.57;7.50;;;14.30;99.90;;;;;;5061850;28;20239;-75
2023/07/25 02:58:50;;;;;;;13.13;7.15;;;14.30;99.90;;;;;;5060790;28;20206;-75
2023/07/25 03:01:17;;;;;;;12.75;7.20;;;14.20;99.90;;;;;;5059988;28;20282;-74
2023/07/25 03:03:44;;;;;;;12.80;6.57;;;14.20;99.90;;;;;;5065526;28;20224;-74
2023/07/25 03:06:11;;;;;;;11.15;7.05;;;14.20;99.90;;;;;;5066785;28;20213;-76
2023/07/25 03:08:39;;;;;;;14.50;10.75;;;14.20;99.90;;;;;;5068265;28;20202;-75
2023/07/25 03:11:06;;;;;;;10.40;8.80;;;14.10;99.90;;;;;;5070159;28;20202;-74
2023/07/25 03:13:32;;;;;;;18.40;7.70;;;14.20;99.90;;;;;;5063856;28;20233;-76
2023/07/25 03:15:59;;;;;;;17.15;7.95;;;14.10;99.90;;;;;;5074012;28;20618;-74
2023/07/25 03:18:26;;;;;;;12.50;7.78;;;14.00;99.90;;;;;;5082317;28;20230;-74
2023/07/25 03:20:53;;;;;;;11.02;7.30;;;14.00;99.90;;;;;;5075793;28;20524;-74
2023/07/25 03:23:20;;;;;;;19.23;7.00;;;13.90;99.90;;;;;;5074934;28;20301;-75
2023/07/25 03:25:49;;;;;;;17.92;8.48;;;14.00;99.90;;;;;;5068368;28;20233;-74
2023/07/25 03:28:16;;;;;;;8.82;6.57;;;14.00;99.90;;;;;;5069544;28;20209;-75
2023/07/25 03:30:43;;;;;;;11.93;7.25;;;14.00;99.90;;;;;;5064873;28;20227;-76
2023/07/25 03:33:10;;;;;;;13.27;7.65;;;14.00;99.90;;;;;;5065271;28;20258;-75
2023/07/25 03:35:37;;;;;;;10.60;7.00;;;13.90;99.90;;;;;;5068580;28;20194;-73
2023/07/25 03:38:03;;;;;;;12.68;7.32;;;13.90;99.90;;;;;;5069785;28;20282;-74
2023/07/25 03:40:30;;;;;;;15.98;7.85;;;13.90;99.90;;;;;;5075976;28;20207;-76
2023/07/25 03:42:59;;;;;;;13.77;7.75;;;13.90;99.90;;;;;;5075346;28;20585;-76
2023/07/25 03:45:25;;;;;;;10.98;7.45;;;13.80;99.90;;;;;;5075659;28;20293;-77
2023/07/25 03:47:52;;;;;;;17.67;8.05;;;13.80;99.90;;;;;;5075905;28;20294;-76
2023/07/25 03:50:19;;;;;;;7.43;6.72;;;13.80;99.90;;;;;;5068931;28;20297;-77
2023/07/25 03:52:46;;;;;;;12.43;7.68;;;13.80;99.90;;;;;;5075722;28;20227;-77
2023/07/25 03:55:13;;;;;;;9.02;6.75;;;13.80;99.90;;;;;;5075599;28;20221;-76
2023/07/25 03:57:40;;;;;;;11.63;7.00;;;13.80;99.90;;;;;;5063661;28;20297;-74
2023/07/25 04:00:09;;;;;;;10.95;8.27;;;13.90;99.90;;;;;;5072057;28;20577;-74
2023/07/25 04:02:36;;;;;;;13.38;8.63;;;13.90;99.90;;;;;;5074592;28;20305;-77
2023/07/25 04:05:03;;;;;;;18.08;7.88;;;13.90;99.90;;;;;;5073364;28;20567;-76
2023/07/25 04:07:30;;;;;;;16.58;7.95;;;13.90;99.90;;;;;;5075061;28;20668;-75
2023/07/25 04:09:57;;;;;;;10.20;7.70;;;13.90;99.90;;;;;;5073842;28;20364;-76
2023/07/25 04:12:24;;;;;;;11.63;7.15;;;13.90;99.90;;;;;;5073511;28;20203;-77
2023/07/25 04:14:51;;;;;;;16.33;8.15;;;14.00;99.90;;;;;;5075740;28;20314;-76
2023/07/25 04:17:19;;;;;;;14.20;6.75;;;14.00;99.90;;;;;;5075296;28;20210;-76
2023/07/25 04:19:46;;;;;;;15.30;7.65;;;14.00;99.90;;;;;;5074853;28;20218;-75
2023/07/25 04:22:13;;;;;;;10.02;7.40;;;14.00;99.90;;;;;;5071939;28;20299;-76
2023/07/25 04:24:40;;;;;;;9.30;6.57;;;14.10;99.90;;;;;;5066972;28;20312;-74
2023/07/25 04:27:07;;;;;;;10.55;6.72;;;14.10;99.90;;;;;;5072804;28;20297;-75
2023/07/25 04:29:34;;;;;;;10.38;6.70;;;14.20;99.90;;;;;;5070148;28;20235;-77
2023/07/25 04:32:00;;;;;;;9.63;7.70;;;14.30;99.90;;;;;;5063326;28;20207;-76
2023/07/25 04:34:29;;;;;;;14.80;6.80;;;14.40;99.90;;;;;;5059756;28;20223;-76
2023/07/25 04:36:56;;;;;;;10.30;6.10;;;14.80;99.90;;;;;;5067003;28;20967;-76
2023/07/25 04:39:23;;;;;;;9.55;4.85;;;15.50;99.90;;;;;;5058308;28;20288;-75
2023/07/25 04:41:50;;;;;;;12.83;4.40;;;16.20;99.90;;;;;;5061528;28;20233;-76
2023/07/25 04:44:16;;;;;;;7.80;4.67;;;16.90;99.90;;;;;;5074805;28;20492;-75
2023/07/25 04:46:43;;;;;;;8.23;3.70;;;17.40;99.90;;;;;;5064865;28;20519;-76
2023/07/25 04:49:11;;;;;;;6.90;4.03;;;18.00;99.90;;;;;;5062603;28;20467;-76
2023/07/25 04:51:39;;;;;;;8.60;4.70;;;18.50;99.90;;;;;;5067491;28;20463;-75
2023/07/25 04:54:06;;;;;;;6.93;3.70;;;19.00;99.90;;;;;;5071855;28;20480;-73
2023/07/25 04:56:33;;;;;;;8.03;3.40;;;19.30;99.90;;;;;;5065104;28;20537;-76
2023/07/25 04:59:00;;;;;;;11.93;4.83;;;19.60;99.90;;;;;;5062708;28;20476;-75
2023/07/25 05:01:28;;;;;;;10.37;3.50;;;20.10;99.90;;;;;;5066912;28;20442;-75
2023/07/25 05:03:55;;;;;;;7.17;2.80;;;20.50;99.90;;;;;;5073420;28;20459;-74
2023/07/25 05:06:21;;;;;;;5.17;3.10;;;21.40;99.90;;;;;;5087407;28;20434;-75
2023/07/25 05:08:50;;;;;;;6.20;3.80;;;22.00;99.90;;;;;;5076947;28;20434;-77
2023/07/25 05:11:17;;;;;;;11.13;3.33;;;22.50;99.90;;;;;;5057471;28;20477;-74
2023/07/25 05:13:44;;;;;;;6.63;2.50;;;22.90;99.90;;;;;;5060944;28;20530;-74
2023/07/25 05:16:10;;;;;;;7.03;3.20;;;23.20;99.90;;;;;;5072059;28;20445;-75
2023/07/25 05:18:37;;;;;;;13.40;3.77;;;23.70;99.50;;;;;;5063633;28;20441;-74
2023/07/25 05:21:04;;;;;;;7.63;3.77;;;24.00;98.10;;;;;;5073015;28;20445;-75
2023/07/25 05:23:31;;;;;;;8.50;2.90;;;24.60;96.80;;;;;;5068788;28;20545;-75
2023/07/25 05:25:59;;;;;;;10.90;2.90;;;25.00;95.20;;;;;;5074154;28;20521;-76
2023/07/25 05:28:26;;;;;;;8.40;3.20;;;25.00;94.00;;;;;;5073475;28;20522;-76
2023/07/25 05:30:53;;;;;;;8.23;3.20;;;25.40;93.40;;;;;;5073059;28;20445;-74
2023/07/25 05:33:20;;;;;;;7.57;3.67;;;25.60;92.30;;;;;;5067091;28;20527;-74
2023/07/25 05:35:47;;;;;;;6.33;2.83;;;25.40;92.10;;;;;;5058783;28;20472;-75
2023/07/25 05:38:14;;;;;;;7.23;3.10;;;25.40;92.50;;;;;;5071347;28;20544;-75
2023/07/25 05:40:41;;;;;;;9.90;3.80;;;25.70;92.20;;;;;;5073042;28;20452;-77
2023/07/25 05:43:11;;;;;;;6.67;3.10;;;26.00;91.60;;;;;;5071077;28;20470;-75
2023/07/25 05:45:39;;;;;;;8.33;2.60;;;25.70;91.10;;;;;;5068448;28;20441;-76
2023/07/25 05:48:06;;;;;;;12.43;2.53;;;24.90;91.50;;;;;;5070751;28;20437;-74
2023/07/25 05:50:33;;;;;;;5.90;3.43;;;23.80;93.40;;;;;;5071723;28;20441;-75
2023/07/25 05:53:00;;;;;;;13.33;3.03;;;23.80;94.20;;;;;;5071719;28;20551;-75
2023/07/25 05:55:27;;;;;;;8.70;2.30;;;24.30;93.70;;;;;;5072652;28;20850;-73
2023/07/25 05:57:53;;;;;;;6.40;2.87;;;24.30;93.10;;;;;;5072380;28;20445;-75
2023/07/25 06:00:22;;;;;;;8.03;2.60;;;23.70;93.60;;;;;;5070449;28;20480;-74
2023/07/25 06:02:49;;;;;;;6.37;2.30;;;23.20;94.90;;;;;;5062824;28;20465;-74
2023/07/25 06:05:16;;;;;;;6.50;2.87;;;23.70;95.10;;;;;;5054642;28;20540;-71
2023/07/25 06:07:43;;;;;;;9.00;2.80;;;24.30;93.60;;;;;;5060428;28;20450;-75
2023/07/25 06:10:11;;;;;;;5.27;2.00;;;24.70;93.10;;;;;;5071044;22;20497;-85
2023/07/25 06:16:29;;;;;;;6.00;2.83;;;26.00;91.30;;;;;;4909916;28;20459;-84
2023/07/25 06:33:00;;;;;;;7.83;2.87;;;25.70;91.70;;;;;;4957816;29;20429;-84
2023/07/25 06:35:27;;;;;;;8.40;2.70;;;25.60;91.00;;;;;;5012226;28;20567;-85
2023/07/25 06:37:54;;;;;;;4.10;2.40;;;25.70;91.40;;;;;;5060612;28;20494;-84
2023/07/25 06:40:21;;;;;;;4.20;2.20;;;26.50;90.90;;;;;;5071097;28;20443;-88
2023/07/25 06:42:48;;;;;;;7.30;3.43;;;27.00;89.80;;;;;;5076226;28;20431;-85
2023/07/25 06:45:15;;;;;;;5.57;2.40;;;27.30;89.00;;;;;;5074347;28;20438;-86
2023/07/25 06:47:42;;;;;;;6.50;3.23;;;26.70;88.60;;;;;;5073115;28;20466;-84
2023/07/25 06:50:10;;;;;;;10.23;2.70;;;25.90;90.00;;;;;;5061979;28;20442;-84
2023/07/25 06:52:37;;;;;;;6.23;3.07;;;25.00;91.20;;;;;;5057642;28;20457;-84
2023/07/25 06:55:05;;;;;;;7.10;3.00;;;24.40;92.00;;;;;;5056493;28;20536;-84
2023/07/25 06:57:32;;;;;;;3.77;2.13;;;23.50;93.10;;;;;;5056229;28;20461;-86
2023/07/25 06:59:59;;;;;;;7.80;5.17;;;23.10;94.50;;;;;;5057722;28;20435;-83
2023/07/25 07:02:29;;;;;;;3.10;2.30;;;23.00;95.40;;;;;;5056565;28;20469;-87
2023/07/25 07:05:01;;;;;;;8.40;3.00;;;22.30;96.00;;;;;;5057970;28;20450;-87
2023/07/25 07:07:30;;;;;;;7.07;2.43;;;22.00;97.30;;;;;;5057700;28;20520;-86
2023/07/25 07:09:57;;;;;;;5.70;2.90;;;21.80;98.60;;;;;;5057111;28;20473;-86
2023/07/25 07:12:24;;;;;;;5.43;2.40;;;21.50;99.50;;;;;;5055629;28;20524;-87
2023/07/25 07:14:51;;;;;;;12.27;4.17;;;21.20;99.90;;;;;;5056089;28;20545;-85
2023/07/25 07:17:18;;;;;;;5.80;2.70;;;20.70;99.90;;;;;;5056444;28;20926;-85
2023/07/25 07:19:45;;;;;;;7.77;2.77;;;20.60;99.90;;;;;;5056814;28;20888;-86
2023/07/25 07:22:12;;;;;;;14.67;3.40;;;20.30;99.90;;;;;;5056913;28;20470;-85
2023/07/25 07:24:41;;;;;;;7.00;2.77;;;20.00;99.90;;;;;;5050604;28;20502;-86
2023/07/25 07:27:08;;;;;;;6.70;2.67;;;19.80;99.90;;;;;;5058191;28;20461;-88
2023/07/25 07:29:35;;;;;;;7.30;3.10;;;19.60;99.90;;;;;;5059754;28;20484;-85
2023/07/25 07:32:03;;;;;;;9.60;4.17;;;19.40;99.90;;;;;;5057568;28;20925;-85
2023/07/25 07:34:30;;;;;;;16.93;4.67;;;19.40;99.90;;;;;;5059152;28;20478;-85
2023/07/25 07:36:57;;;;;;;9.87;4.67;;;19.30;99.90;;;;;;5058041;28;20430;-86
2023/07/25 07:39:25;;;;;;;11.57;4.03;;;19.10;99.90;;;;;;5052893;28;20608;-84
2023/07/25 07:41:53;;;;;;;7.93;3.60;;;18.90;99.90;;;;;;5059914;28;20460;-84
2023/07/25 07:44:20;;;;;;;8.73;4.33;;;18.70;99.90;;;;;;5059902;28;20541;-85
2023/07/25 07:46:47;;;;;;;11.77;3.30;;;18.60;99.90;;;;;;5057246;28;20465;-86
2023/07/25 07:49:14;;;;;;;8.03;3.63;;;18.60;99.90;;;;;;5060091;28;20522;-86
2023/07/25 07:51:40;;;;;;;6.97;2.80;;;18.40;99.90;;;;;;5052901;28;20451;-86
2023/07/25 07:54:07;;;;;;;7.50;3.67;;;18.40;99.90;;;;;;5059238;28;20512;-86
2023/07/25 07:56:34;;;;;;;9.73;4.30;;;18.40;99.90;;;;;;5060795;28;20595;-85
2023/07/25 07:59:02;;;;;;;6.43;3.70;;;18.30;99.90;;;;;;5064362;28;20537;-86
2023/07/25 08:01:29;;;;;;;8.03;4.47;;;18.20;99.90;;;;;;5064675;28;20859;-87
2023/07/25 08:03:57;;;;;;;9.03;4.67;;;18.20;99.90;;;;;;5063418;28;20455;-85
2023/07/25 08:06:24;;;;;;;15.13;4.63;;;18.00;99.90;;;;;;5062643;28;20445;-86
2023/07/25 08:08:51;;;;;;;9.23;4.80;;;18.00;99.90;;;;;;5062619;28;20505;-86
2023/07/25 08:11:17;;;;;;;11.03;4.63;;;17.90;99.90;;;;;;5063906;28;20473;-85
2023/07/25 08:13:44;;;;;;;7.73;3.60;;;17.80;99.90;;;;;;5066497;28;20452;-85
2023/07/25 08:16:13;;;;;;;8.83;3.10;;;17.90;99.90;;;;;;5063592;28;20477;-85
2023/07/25 08:18:40;;;;;;;5.90;2.70;;;17.90;99.90;;;;;;5069941;28;20474;-86
2023/07/25 08:21:07;;;;;;;4.50;2.80;;;17.80;99.90;;;;;;5067504;28;20468;-86
2023/07/25 08:23:34;;;;;;;5.80;3.30;;;17.90;99.90;;;;;;5053890;28;20455;-85
2023/07/25 08:26:00;;;;;;;6.80;2.90;;;18.00;99.90;;;;;;5061677;28;20442;-85
2023/07/25 08:28:27;;;;;;;5.73;2.70;;;18.10;99.90;;;;;;5063929;28;20481;-85
2023/07/25 08:31:01;;;;;;;2.90;2.60;;;18.20;99.90;;;;;;5062256;28;20482;-85
2023/07/25 08:33:31;;;;;;;4.93;2.37;;;18.20;99.90;;;;;;5060197;28;20498;-85
2023/07/25 08:35:58;;;;;;;4.93;1.80;;;18.40;99.90;;;;;;5064792;28;20497;-87
2023/07/25 08:38:25;;;;;;;4.30;1.67;;;18.70;99.90;;;;;;5058032;28;20850;-86
2023/07/25 08:41:01;;;;;;;7.37;2.23;;;19.00;99.90;;;;;;5064252;28;20454;-86
2023/07/25 08:43:29;;;;;;;2.50;1.87;;;19.40;99.90;;;;;;5064564;28;20469;-86
2023/07/25 08:45:58;;;;;;;6.33;1.83;;;19.70;99.90;;;;;;5063504;28;20934;-86
2023/07/25 08:48:27;;;;;;;6.37;2.50;;;19.90;99.90;;;;;;5057533;28;20950;-85
2023/07/25 08:50:58;;;;;;;2.80;1.37;;;20.10;99.90;;;;;;5064540;28;20440;-84
2023/07/25 08:53:28;;;;;;;3.17;2.00;;;20.40;99.90;;;;;;5063317;28;20476;-87
2023/07/25 08:55:56;;;;;;;4.23;1.63;;;20.70;99.90;;;;;;5059585;28;20528;-87
2023/07/25 08:58:25;;;;;;;7.80;3.57;;;20.90;99.90;;;;;;5062050;28;20487;-86
2023/07/25 09:00:53;;;;;;;5.80;1.90;;;21.00;99.90;;;;;;5061905;28;20473;-87
2023/07/25 09:03:20;;;;;;;4.07;3.00;;;21.10;99.90;;;;;;5066240;28;20458;-87
2023/07/25 09:05:48;;;;;;;10.33;4.33;;;21.30;99.90;;;;;;5057584;28;20447;-86
2023/07/25 09:08:16;;;;;;;5.93;2.80;;;21.50;99.90;;;;;;5053592;28;21155;-86
2023/07/25 09:10:45;;;;;;;5.10;4.23;;;21.50;99.90;;;;;;5061559;28;20481;-88
2023/07/25 09:13:12;;;;;;;3.97;2.37;;;21.70;99.90;;;;;;5054512;28;20774;-85
2023/07/25 09:15:39;;;;;;;6.73;5.30;;;22.00;99.90;;;;;;5056951;28;20510;-87
2023/07/25 09:18:06;;;;;;;8.90;2.13;;;22.40;99.90;;;;;;5060996;28;20466;-86
2023/07/25 09:20:33;;;;;;;6.77;3.00;;;22.70;96.90;;;;;;5061032;28;20537;-85
2023/07/25 09:23:02;;;;;;;7.73;3.50;;;22.80;97.10;;;;;;5055591;28;20446;-87
2023/07/25 09:25:30;;;;;;;5.40;3.10;;;23.00;95.10;;;;;;5057737;28;20446;-84
2023/07/25 09:27:57;;;;;;;8.03;4.03;;;23.10;94.80;;;;;;5058450;28;20470;-86
2023/07/25 09:30:28;;;;;;;6.93;3.60;;;23.30;94.20;;;;;;5057493;28;20851;-86
2023/07/25 09:32:56;;;;;;;4.10;1.97;;;23.50;94.00;;;;;;5063358;28;20465;-86
2023/07/25 09:35:24;;;;;;;7.20;2.17;;;23.50;93.40;;;;;;5064902;28;20558;-86
2023/07/25 09:37:55;;;;;;;4.83;2.87;;;23.70;92.40;;;;;;5059629;28;20986;-86
2023/07/25 09:40:22;;;;;;;5.83;3.00;;;23.60;92.50;;;;;;5060747;28;20534;-85
2023/07/25 09:42:51;;;;;;;5.23;2.63;;;23.70;92.20;;;;;;5052178;28;20458;-86
2023/07/25 09:45:18;;;;;;;11.73;1.87;;;23.60;92.20;;;;;;5053455;28;20438;-86
2023/07/25 09:47:50;;;;;;;6.33;1.90;;;23.50;92.60;;;;;;5058069;28;20459;-86
2023/07/25 09:50:17;;;;;;;6.83;2.53;;;23.70;92.00;;;;;;5057925;28;20438;-87
2023/07/25 09:52:44;;;;;;;4.77;2.10;;;24.20;92.00;;;;;;5055774;28;20454;-87
2023/07/25 09:55:11;;;;;;;6.80;2.60;;;24.60;91.50;;;;;;5058217;28;20574;-86
2023/07/25 09:57:38;;;;;;;8.87;2.50;;;25.00;91.10;;;;;;5055839;28;20504;-86
2023/07/25 10:00:09;;;;;;;10.03;2.00;;;25.40;90.70;;;;;;5060104;28;20477;-87
2023/07/25 10:02:38;;;;;;;6.90;1.60;;;26.00;88.80;;;;;;5060504;28;20884;-85
2023/07/25 10:05:05;;;;;;;7.33;1.97;;;26.30;88.20;;;;;;5047386;28;20523;-86
2023/07/25 10:07:34;;;;;;;4.00;1.67;;;26.60;87.30;;;;;;5061675;28;20494;-86
2023/07/25 10:10:03;;;;;;;5.90;1.30;;;27.00;84.90;;;;;;5060311;28;20442;-85
2023/07/25 10:12:31;;;;;;;4.43;1.53;;;26.70;85.70;;;;;;5058606;28;20453;-86
2023/07/25 10:14:57;;;;;;;3.67;1.37;;;26.50;84.70;;;;;;5052157;28;20517;-86
2023/07/25 10:17:26;;;;;;;6.10;1.50;;;26.10;85.00;;;;;;5061250;28;20867;-86
2023/07/25 10:19:54;;;;;;;4.60;1.33;;;26.10;85.30;;;;;;5049435;28;20473;-85
2023/07/25 10:22:37;;;;;;;3.57;1.50;;;26.20;85.70;;;;;;5058672;28;20482;-86
2023/07/25 10:25:09;;;;;;;6.90;1.70;;;26.60;85.20;;;;;;5057426;28;20450;-86
2023/07/25 10:27:36;;;;;;;6.00;1.50;;;26.90;84.00;;;;;;5058150;28;21001;-85
2023/07/25 10:30:20;;;;;;;8.83;3.90;;;27.10;83.80;;;;;;5048775;28;20443;-86
2023/07/25 10:32:56;;;;;;;3.90;2.43;;;27.40;82.40;;;;;;5060265;28;20509;-85
2023/07/25 10:35:46;;;;;;;4.17;1.70;;;27.50;82.50;;;;;;5058488;28;20489;-86
2023/07/25 10:38:15;;;;;;;3.93;1.70;;;27.90;82.20;;;;;;5057325;28;20497;-86
2023/07/25 10:40:54;;;;;;;4.33;2.47;;;27.80;80.70;;;;;;5058935;28;20505;-86
2023/07/25 10:43:21;;;;;;;6.93;2.67;;;27.30;81.60;;;;;;5051509;28;20445;-86
2023/07/25 10:45:53;;;;;;;4.73;2.00;;;26.70;82.60;;;;;;5059521;28;20958;-85
2023/07/25 10:48:45;;;;;;;5.07;2.37;;;25.90;83.80;;;;;;5061531;28;21026;-84
2023/07/25 10:51:13;;;;;;;3.90;2.43;;;24.80;86.30;;;;;;5063209;28;20427;-84
2023/07/25 10:53:40;;;;;;;5.13;2.23;;;24.00;88.80;;;;;;5055198;28;20450;-84
2023/07/25 10:56:15;;;;;;;12.83;2.70;;;23.30;90.70;;;;;;5067348;28;20524;-84
2023/07/25 10:59:07;;;;;;;3.63;2.00;;;22.70;91.90;;;;;;5062152;28;20475;-84
2023/07/25 11:01:36;;;;;;;3.20;2.30;;;22.10;94.80;;;;;;5040192;28;20538;-84
2023/07/25 11:04:26;;;;;;;11.50;2.57;;;21.60;96.50;;;;;;5053981;28;20508;-84
2023/07/25 11:06:54;;;;;;;7.10;3.13;;;21.30;98.10;;;;;;5060784;28;20442;-84
2023/07/25 11:09:22;;;;;;;9.03;2.67;;;21.10;97.90;;;;;;5051224;28;20544;-85
2023/07/25 11:11:50;;;;;;;5.10;2.37;;;20.90;98.60;;;;;;5061978;28;20488;-83
2023/07/25 11:14:22;;;;;;;4.70;2.07;;;20.90;98.90;;;;;;5063334;28;20479;-84
2023/07/25 11:16:51;;;;;;;7.20;2.90;;;21.00;98.50;;;;;;5049143;28;20483;-85
2023/07/25 11:19:19;;;;;;;4.47;2.20;;;21.10;97.40;;;;;;5057864;28;20473;-84
2023/07/25 11:21:48;;;;;;;2.50;1.50;;;21.30;96.70;;;;;;5058672;28;20450;-84
2023/07/25 11:24:15;;;;;;;6.57;2.53;;;21.70;96.20;;;;;;5058418;28;20454;-85
2023/07/25 11:26:43;;;;;;;8.43;2.30;;;22.00;95.30;;;;;;5058790;28;20473;-85
2023/07/25 11:29:12;;;;;;;9.37;2.60;;;22.20;94.60;;;;;;5055977;28;20480;-84
2023/07/25 11:31:45;;;;;;;5.83;2.30;;;22.50;94.60;;;;;;5057366;28;20439;-85
2023/07/25 11:34:13;;;;;;;8.10;2.50;;;23.00;93.90;;;;;;5058010;28;20540;-85
2023/07/25 11:36:41;;;;;;;7.00;2.33;;;23.20;93.40;;;;;;5065193;28;20497;-84
2023/07/25 11:39:11;;;;;;;5.13;2.30;;;23.20;92.90;;;;;;5064807;28;20468;-83
2023/07/25 11:41:38;;;;;;;4.47;1.80;;;23.50;92.60;;;;;;5063066;28;20442;-84
2023/07/25 11:44:09;;;;;;;6.57;2.20;;;23.70;92.20;;;;;;5054770;28;20452;-85
2023/07/25 11:46:36;;;;;;;5.50;1.93;;;23.90;92.10;;;;;;5061642;28;20505;-85
2023/07/25 11:49:04;;;;;;;4.60;2.10;;;23.80;91.90;;;;;;5063975;28;20473;-85
2023/07/25 11:51:31;;;;;;;5.70;1.83;;;23.90;92.00;;;;;;5063057;28;20452;-85
2023/07/25 11:54:03;;;;;;;6.93;1.90;;;23.80;91.20;;;;;;5061471;28;20887;-84
2023/07/25 11:56:33;;;;;;;4.57;2.40;;;23.60;91.40;;;;;;5061050;28;20474;-84
2023/07/25 11:59:00;;;;;;;3.90;1.77;;;23.50;90.90;;;;;;5059051;28;20489;-84
2023/07/25 12:01:29;;;;;;;7.10;2.77;;;23.60;91.00;;;;;;5061731;28;20470;-83
2023/07/25 12:03:56;;;;;;;4.97;2.10;;;23.50;91.20;;;;;;5060000;28;20449;-83
2023/07/25 12:06:31;;;;;;;4.03;2.10;;;23.80;91.70;;;;;;5062664;28;20449;-83
2023/07/25 12:08:58;;;;;;;7.33;1.60;;;23.90;91.30;;;;;;5060391;28;20476;-83
2023/07/25 12:11:26;;;;;;;4.40;2.40;;;23.90;91.20;;;;;;5051623;28;20464;-83
2023/07/25 12:13:56;;;;;;;17.13;2.50;;;23.60;91.40;;;;;;5061519;28;20458;-83
2023/07/25 12:16:28;;;;;;;8.13;3.03;;;23.60;91.90;;;;;;5061623;28;20481;-83
2023/07/25 12:18:56;;;;;;;6.17;2.03;;;23.60;91.40;;;;;;5062199;28;20473;-83
2023/07/25 12:21:26;;;;;;;8.20;2.13;;;23.50;91.40;;;;;;5059009;28;20450;-84
2023/07/25 12:23:54;;;;;;;6.50;1.93;;;23.50;91.50;;;;;;5062251;28;20450;-83
2023/07/25 12:26:21;;;;;;;10.37;2.90;;;23.60;91.00;;;;;;5063550;28;20514;-82
2023/07/25 12:28:49;;;;;;;5.43;1.80;;;23.60;91.10;;;;;;5062518;28;20476;-83
2023/07/25 12:31:17;;;;;;;7.23;2.00;;;23.60;90.80;;;;;;5060790;28;20499;-83
2023/07/25 12:33:44;;;;;;;7.23;1.60;;;23.60;90.70;;;;;;5059705;28;20581;-82
2023/07/25 12:36:12;;;;;;;4.33;2.00;;;23.70;91.20;;;;;;5060443;28;20498;-83
2023/07/25 12:38:39;;;;;;;5.30;2.90;;;23.90;90.90;;;;;;5061080;28;20489;-83
2023/07/25 12:41:06;;;;;;;8.70;1.90;;;24.00;90.60;;;;;;5061425;28;20477;-83
2023/07/25 12:43:33;;;;;;;2.80;1.50;;;24.00;90.40;;;;;;5059958;28;20446;-82
2023/07/25 12:45:59;;;;;;;3.67;1.90;;;23.90;89.90;;;;;;5060177;28;20986;-82
2023/07/25 12:48:28;;;;;;;6.70;1.90;;;23.80;90.50;;;;;;5059260;28;20469;-82
2023/07/25 12:50:55;;;;;;;7.13;1.70;;;23.70;90.20;;;;;;5055395;28;20442;-82
2023/07/25 12:53:22;;;;;;;13.90;2.27;;;23.70;90.00;;;;;;5066708;28;20469;-83
2023/07/25 12:55:48;;;;;;;3.00;1.50;;;23.80;87.50;;;;;;5070808;28;20609;-84
2023/07/25 12:58:15;;;;;;;3.53;1.57;;;23.90;86.20;;;;;;5076575;28;20517;-84
2023/07/25 13:00:42;;;;;;;4.60;1.30;;;24.00;85.70;;;;;;5074871;28;20583;-83
2023/07/25 13:03:09;;;;;;;5.50;1.73;;;24.00;85.80;;;;;;5074428;28;20481;-81
2023/07/25 13:05:38;;;;;;;5.83;2.10;;;24.00;84.70;;;;;;5074344;28;20457;-82